Time;durP1;ratioP1;P1;durP2;ratioP2;P2;SDS_P1;SDS_P2;PMS_P1;PMS_P2;Temp;Humidity;BMP_temperature;BMP_pressure;BME280_temperature;BME280_humidity;BME280_pressure;Samples;Min_cycle;Max_cycle;Signal;HPM_P1;HPM_P2
2021/06/29 00:01:10;;;;;;;;;3.00;3.00;;;;;17.31;75.63;101150.09;4933764;28;45417;-76
2021/06/29 00:03:36;;;;;;;;;3.75;2.75;;;;;17.31;75.86;101152.75;4935188;28;46958;-76
2021/06/29 00:06:02;;;;;;;;;3.00;2.50;;;;;17.28;75.87;101154.75;4935565;28;45826;-77
2021/06/29 00:08:28;;;;;;;;;2.75;2.75;;;;;17.26;76.46;101146.91;4935836;28;46368;-77
2021/06/29 00:10:53;;;;;;;;;2.50;1.75;;;;;17.23;76.12;101152.41;4935969;28;45413;-77
2021/06/29 00:13:20;;;;;;;;;3.00;2.00;;;;;17.22;76.01;101151.53;4934377;28;45463;-77
2021/06/29 00:15:45;;;;;;;;;2.00;2.00;;;;;17.19;76.46;101148.25;4934892;28;45425;-76
2021/06/29 00:18:11;;;;;;;;;1.50;1.50;;;;;17.18;76.07;101141.25;4934719;28;45350;-78
2021/06/29 00:20:36;;;;;;;;;2.00;2.00;;;;;17.16;76.24;101132.50;4934284;28;45391;-76
2021/06/29 00:23:03;;;;;;;;;1.25;1.25;;;;;17.14;76.38;101137.06;4934800;28;45506;-77
2021/06/29 00:25:29;;;;;;;;;3.00;2.00;;;;;17.12;76.61;101137.19;4936707;28;45831;-77
2021/06/29 00:27:54;;;;;;;;;1.25;1.00;;;;;17.13;76.41;101132.72;4934131;28;47120;-76
2021/06/29 00:30:20;;;;;;;;;2.50;2.00;;;;;17.12;76.45;101137.19;4934937;28;45475;-77
2021/06/29 00:32:45;;;;;;;;;2.00;2.00;;;;;17.07;76.92;101133.06;4933620;28;45748;-76
2021/06/29 00:35:11;;;;;;;;;3.00;2.75;;;;;17.06;76.81;101139.34;4935157;28;45345;-76
2021/06/29 00:37:38;;;;;;;;;2.00;2.00;;;;;17.02;76.83;101124.56;4936688;28;46640;-77
2021/06/29 00:40:05;;;;;;;;;2.00;2.00;;;;;16.98;77.32;101128.38;4934885;28;45721;-76
2021/06/29 00:42:31;;;;;;;;;2.25;2.25;;;;;16.95;77.14;101130.25;4934536;28;45565;-77
2021/06/29 00:44:56;;;;;;;;;3.00;3.00;;;;;16.92;77.41;101125.16;4937663;28;45424;-77
2021/06/29 00:47:22;;;;;;;;;2.75;2.75;;;;;16.91;77.58;101130.53;4939131;28;45495;-77
2021/06/29 00:49:48;;;;;;;;;2.75;2.25;;;;;16.89;77.64;101125.34;4939116;28;45519;-77
2021/06/29 00:52:14;;;;;;;;;1.50;1.50;;;;;16.89;78.00;101124.50;4937659;28;45352;-77
2021/06/29 00:54:41;;;;;;;;;4.00;3.00;;;;;16.90;77.95;101118.22;4937742;28;45532;-77
2021/06/29 00:57:08;;;;;;;;;3.00;3.00;;;;;16.89;78.00;101117.38;4939052;28;45324;-77
2021/06/29 00:59:34;;;;;;;;;3.00;2.25;;;;;16.88;78.00;101106.88;4938498;28;45426;-77
2021/06/29 01:01:59;;;;;;;;;3.00;3.00;;;;;16.86;77.85;101114.06;4936921;28;45416;-76
2021/06/29 01:04:24;;;;;;;;;2.00;2.00;;;;;16.82;78.24;101116.06;4938919;28;45529;-77
2021/06/29 01:06:50;;;;;;;;;2.00;2.00;;;;;16.81;78.23;101111.72;4938496;28;46229;-78
2021/06/29 01:09:16;;;;;;;;;4.00;4.00;;;;;16.79;78.45;101105.63;4937690;28;45506;-76
2021/06/29 01:11:41;;;;;;;;;3.00;1.75;;;;;16.78;78.20;101106.59;4937136;28;45343;-77
2021/06/29 01:14:15;;;;;;;;;2.75;2.75;;;;;16.76;78.23;101103.19;4938059;28;45382;-77
2021/06/29 01:16:42;;;;;;;;;3.00;2.00;;;;;16.74;78.39;101107.72;4936005;28;45550;-76
2021/06/29 01:19:07;;;;;;;;;2.50;2.50;;;;;16.72;78.50;101106.13;4938577;28;45373;-77
2021/06/29 01:21:37;;;;;;;;;2.50;2.50;;;;;16.71;78.67;101099.97;4936377;28;45467;-77
2021/06/29 01:24:07;;;;;;;;;3.00;3.00;;;;;16.70;78.76;101103.50;4937054;28;45397;-77
2021/06/29 01:26:36;;;;;;;;;5.75;4.00;;;;;16.69;78.67;101101.81;4937023;28;47135;-77
2021/06/29 01:31:28;;;;;;;;;5.00;2.25;;;;;16.64;78.64;101098.59;4939163;28;45602;-77
2021/06/29 01:33:54;;;;;;;;;2.00;2.00;;;;;16.62;78.57;101104.00;4936959;28;45476;-77
2021/06/29 01:36:22;;;;;;;;;3.25;3.25;;;;;16.60;78.59;101102.38;4936973;28;45784;-77
2021/06/29 01:38:49;;;;;;;;;3.00;3.00;;;;;16.58;78.57;101104.28;4937411;28;45425;-77
2021/06/29 01:41:19;;;;;;;;;5.00;3.75;;;;;16.54;78.68;101092.16;4937543;28;45829;-77
2021/06/29 01:43:50;;;;;;;;;2.00;2.00;;;;;16.51;78.64;101098.53;4938341;28;45654;-77
2021/06/29 01:46:17;;;;;;;;;4.75;3.00;;;;;16.51;78.78;101095.00;4938296;28;45995;-77
2021/06/29 01:48:53;;;;;;;;;2.75;2.00;;;;;16.51;78.95;101097.66;4937222;28;45750;-77
2021/06/29 01:51:20;;;;;;;;;4.75;2.25;;;;;16.49;78.43;101096.91;4936834;28;45535;-77
2021/06/29 01:53:47;;;;;;;;;5.00;4.00;;;;;16.47;78.62;101094.34;4937074;28;45446;-77
2021/06/29 01:56:17;;;;;;;;;3.50;3.50;;;;;16.45;78.82;101085.63;4930420;28;47197;-76
2021/06/29 01:58:50;;;;;;;;;2.00;2.00;;;;;16.43;78.70;101096.31;4938678;28;45709;-77
2021/06/29 02:01:15;;;;;;;;;3.00;2.00;;;;;16.42;78.89;101081.38;4937510;28;45417;-77
2021/06/29 02:03:41;;;;;;;;;3.50;2.00;;;;;16.40;79.21;101077.97;4935820;28;45646;-77
2021/06/29 02:06:06;;;;;;;;;3.00;3.00;;;;;16.39;78.93;101080.69;4935722;28;47221;-77
2021/06/29 02:08:31;;;;;;;;;4.00;4.00;;;;;16.37;79.20;101091.41;4934466;28;45613;-77
2021/06/29 02:11:27;;;;;;;;;3.00;2.00;;;;;16.33;79.10;101087.22;4914666;28;45416;-77
2021/06/29 02:13:52;;;;;;;;;4.75;3.00;;;;;16.33;79.53;101089.88;4915521;28;47658;-77
2021/06/29 02:16:17;;;;;;;;;4.50;3.50;;;;;16.31;79.39;101089.13;4917142;28;46059;-77
2021/06/29 02:18:42;;;;;;;;;3.50;3.50;;;;;16.29;79.17;101084.88;4915143;28;45480;-77
2021/06/29 02:21:08;;;;;;;;;4.50;3.00;;;;;16.28;79.08;101084.00;4916616;28;45578;-78
2021/06/29 02:23:34;;;;;;;;;6.00;2.50;;;;;16.25;79.21;101080.72;4921299;28;45476;-77
2021/06/29 02:26:00;;;;;;;;;3.25;3.00;;;;;16.25;79.41;101083.34;4921989;28;46015;-77
2021/06/29 02:28:26;;;;;;;;;2.75;2.75;;;;;16.23;79.16;101078.13;4922927;28;45421;-77
2021/06/29 02:30:52;;;;;;;;;4.50;3.00;;;;;16.22;79.30;101076.44;4921587;28;45620;-77
2021/06/29 02:33:17;;;;;;;;;5.25;2.00;;;;;16.22;79.34;101083.53;4921839;28;45455;-77
2021/06/29 02:35:42;;;;;;;;;4.75;3.75;;;;;16.23;79.28;101091.38;4920174;28;46250;-77
2021/06/29 02:38:08;;;;;;;;;4.00;3.25;;;;;16.19;79.00;101087.25;4919309;28;45536;-77
2021/06/29 02:40:33;;;;;;;;;3.75;3.00;;;;;16.16;79.47;101079.47;4923083;28;45504;-76
2021/06/29 02:42:59;;;;;;;;;7.25;4.25;;;;;16.15;78.98;101077.75;4906359;28;45302;-78
2021/06/29 02:45:25;;;;;;;;;2.00;2.00;;;;;16.12;79.13;101076.13;4931676;28;45452;-77
2021/06/29 02:47:51;;;;;;;;;5.00;4.00;;;;;16.10;78.90;101074.53;4943218;28;45245;-76
2021/06/29 02:50:18;;;;;;;;;5.00;4.75;;;;;16.07;79.23;101072.91;4942512;28;45627;-77
2021/06/29 02:52:44;;;;;;;;;4.00;3.00;;;;;16.04;79.47;101070.47;4944062;28;45526;-77
2021/06/29 02:55:11;;;;;;;;;3.00;3.00;;;;;16.03;79.46;101067.91;4942925;28;46095;-77
2021/06/29 02:57:37;;;;;;;;;4.00;3.00;;;;;16.00;79.39;101063.63;4942482;28;45460;-77
2021/06/29 03:00:08;;;;;;;;;2.25;2.25;;;;;15.99;79.55;101061.94;4942141;28;45392;-77
2021/06/29 03:02:34;;;;;;;;;2.75;1.75;;;;;15.97;79.56;101063.78;4937899;28;45694;-76
2021/06/29 03:05:00;;;;;;;;;3.50;3.00;;;;;15.96;79.26;101059.44;4935887;28;45802;-77
2021/06/29 03:07:25;;;;;;;;;4.00;3.00;;;;;15.95;79.27;101056.91;4936056;28;45489;-76
2021/06/29 03:09:51;;;;;;;;;4.25;4.25;;;;;15.92;79.65;101057.91;4935730;28;45577;-75
2021/06/29 03:12:16;;;;;;;;;2.50;2.50;;;;;15.88;79.43;101049.31;4935789;28;45564;-76
2021/06/29 03:14:42;;;;;;;;;3.75;2.25;;;;;15.88;79.52;101045.81;4934735;28;45397;-77
2021/06/29 03:17:08;;;;;;;;;2.00;2.00;;;;;15.86;79.52;101042.38;4936385;28;45507;-77
2021/06/29 03:19:34;;;;;;;;;3.25;3.00;;;;;15.84;79.73;101042.50;4937723;28;45529;-76
2021/06/29 03:22:00;;;;;;;;;4.25;4.00;;;;;15.81;79.65;101041.81;4935583;28;45554;-76
2021/06/29 03:24:27;;;;;;;;;3.00;3.00;;;;;15.81;79.50;101047.13;4936130;28;45329;-76
2021/06/29 03:26:52;;;;;;;;;3.00;3.00;;;;;15.78;79.69;101034.91;4935954;28;45359;-76
2021/06/29 03:29:18;;;;;;;;;2.00;2.00;;;;;15.78;79.86;101034.91;4934846;28;45632;-76
2021/06/29 03:31:43;;;;;;;;;2.00;2.00;;;;;15.82;79.75;101025.84;4937375;28;45369;-76
2021/06/29 03:34:09;;;;;;;;;3.00;3.00;;;;;15.87;79.54;101031.72;4935937;28;45309;-76
2021/06/29 03:36:34;;;;;;;;;3.00;2.00;;;;;15.90;79.80;101036.81;4934351;28;45458;-76
2021/06/29 03:39:00;;;;;;;;;4.00;1.75;;;;;15.94;79.46;101037.50;4934938;28;45536;-77
2021/06/29 03:41:25;;;;;;;;;1.00;1.00;;;;;15.96;79.45;101034.75;4935926;28;45396;-77
2021/06/29 03:43:51;;;;;;;;;4.00;2.00;;;;;15.99;79.50;101038.06;4937035;28;46704;-76
2021/06/29 03:46:16;;;;;;;;;2.75;2.75;;;;;16.02;79.24;101037.00;4937107;28;45321;-77
2021/06/29 03:48:42;;;;;;;;;2.50;2.00;;;;;16.04;79.25;101033.34;4934983;28;45379;-76
2021/06/29 03:51:07;;;;;;;;;4.00;3.00;;;;;16.06;79.14;101035.88;4935412;28;45581;-77
2021/06/29 03:53:32;;;;;;;;;3.00;3.00;;;;;16.10;79.34;101046.22;4933637;28;57973;-77
2021/06/29 03:55:58;;;;;;;;;4.00;2.00;;;;;16.12;78.95;101032.84;4935609;28;45417;-77
2021/06/29 03:58:23;;;;;;;;;3.00;3.00;;;;;16.15;79.25;101030.88;4936899;28;45512;-76
2021/06/29 04:00:49;;;;;;;;;3.50;1.50;;;;;16.17;79.29;101026.31;4935222;28;45419;-77
2021/06/29 04:03:14;;;;;;;;;5.75;2.75;;;;;16.20;78.91;101027.94;4935774;28;45325;-77
2021/06/29 04:05:39;;;;;;;;;3.25;2.25;;;;;16.22;78.61;101027.84;4935061;28;45464;-76
2021/06/29 04:08:05;;;;;;;;;5.00;3.50;;;;;16.26;78.59;101035.53;4934423;28;45392;-76
2021/06/29 04:10:31;;;;;;;;;3.00;3.00;;;;;16.30;78.52;101037.03;4936964;28;45437;-77
2021/06/29 04:12:57;;;;;;;;;4.00;3.00;;;;;16.34;78.67;101043.88;4934776;28;45932;-77
2021/06/29 04:15:23;;;;;;;;;3.00;3.00;;;;;16.35;78.71;101029.66;4935106;28;45574;-76
2021/06/29 04:17:48;;;;;;;;;2.25;1.00;;;;;16.35;78.47;101034.97;4935062;28;45461;-76
2021/06/29 04:20:14;;;;;;;;;3.00;3.00;;;;;16.35;78.28;101028.81;4934387;28;45357;-76
2021/06/29 04:22:40;;;;;;;;;2.00;2.00;;;;;16.35;78.09;101032.31;4936287;28;46058;-76
2021/06/29 04:25:07;;;;;;;;;3.00;3.00;;;;;16.39;78.68;101022.34;4935455;28;45400;-77
2021/06/29 04:27:33;;;;;;;;;3.75;3.50;;;;;16.43;78.13;101015.91;4935112;28;45397;-76
2021/06/29 04:29:59;;;;;;;;;2.75;2.50;;;;;16.46;78.52;101026.31;4933971;28;45504;-76
2021/06/29 04:32:24;;;;;;;;;3.00;3.00;;;;;16.48;78.23;101027.06;4933529;28;46174;-76
2021/06/29 04:34:49;;;;;;;;;3.00;3.00;;;;;16.52;78.09;101028.59;4935172;28;45384;-76
2021/06/29 04:37:15;;;;;;;;;2.75;2.75;;;;;16.55;77.92;101028.41;4935515;28;45430;-76
2021/06/29 04:39:41;;;;;;;;;2.00;2.00;;;;;16.57;77.64;101029.16;4934294;28;45545;-77
2021/06/29 04:42:07;;;;;;;;;3.50;3.00;;;;;16.60;77.66;101022.78;4934957;28;46157;-77
2021/06/29 04:44:35;;;;;;;;;5.00;4.00;;;;;16.62;77.32;101021.75;4933679;28;45533;-78
2021/06/29 04:47:01;;;;;;;;;2.00;2.00;;;;;16.64;77.47;101024.28;4934901;28;45436;-77
2021/06/29 04:49:28;;;;;;;;;3.25;3.25;;;;;16.69;77.71;101016.91;4935348;28;45337;-77
2021/06/29 04:51:54;;;;;;;;;3.00;2.00;;;;;16.73;76.94;101018.44;4934221;28;47216;-77
2021/06/29 04:54:19;;;;;;;;;6.00;4.50;;;;;16.80;77.19;101008.28;4934813;28;53144;-77
2021/06/29 04:56:44;;;;;;;;;3.75;3.75;;;;;16.90;77.25;101010.22;4934903;28;45672;-77
2021/06/29 04:59:10;;;;;;;;;5.00;2.50;;;;;16.98;76.78;101009.75;4933649;28;47447;-77
2021/06/29 05:01:35;;;;;;;;;2.25;2.25;;;;;17.09;76.63;101014.34;4935557;28;46926;-77
2021/06/29 05:04:00;;;;;;;;;4.25;4.25;;;;;17.20;76.30;101017.16;4933258;28;45405;-78
2021/06/29 05:06:26;;;;;;;;;2.00;2.00;;;;;17.29;76.21;101011.22;4934677;28;45487;-77
2021/06/29 05:08:51;;;;;;;;;4.00;4.00;;;;;17.39;75.68;101020.28;4933338;28;45488;-78
2021/06/29 05:11:16;;;;;;;;;3.75;2.75;;;;;17.51;75.47;101023.94;4933184;28;45507;-78
2021/06/29 05:13:42;;;;;;;;;3.50;3.50;;;;;17.61;75.21;101025.00;4935191;28;45467;-78
2021/06/29 05:16:07;;;;;;;;;4.75;4.00;;;;;17.70;75.33;101029.72;4934587;28;45376;-78
2021/06/29 05:18:33;;;;;;;;;5.00;5.00;;;;;17.77;74.46;101032.81;4933829;28;45516;-78
2021/06/29 05:20:58;;;;;;;;;5.75;4.75;;;;;17.81;74.68;101036.97;4934069;28;45809;-78
2021/06/29 05:23:24;;;;;;;;;5.75;5.00;;;;;17.85;73.97;101042.91;4933738;28;45747;-77
2021/06/29 05:25:49;;;;;;;;;7.75;6.00;;;;;17.89;73.82;101041.75;4935071;28;45328;-78
2021/06/29 05:28:19;;;;;;;;;7.00;4.75;;;;;17.96;74.06;101043.06;4934671;28;45496;-77
2021/06/29 05:30:45;;;;;;;;;6.50;4.75;;;;;17.99;73.74;101056.13;4936937;28;45542;-77
2021/06/29 05:33:11;;;;;;;;;9.25;6.25;;;;;17.96;73.16;101054.53;4935827;28;46028;-78
2021/06/29 05:35:36;;;;;;;;;7.00;6.00;;;;;17.90;73.50;101052.28;4937715;28;45445;-78
2021/06/29 05:38:02;;;;;;;;;6.25;6.25;;;;;17.90;73.82;101049.63;4937303;28;45618;-78
2021/06/29 05:40:28;;;;;;;;;4.50;4.00;;;;;17.93;73.25;101049.44;4939087;28;45389;-77
2021/06/29 05:42:53;;;;;;;;;5.00;4.75;;;;;17.98;73.10;101055.28;4937713;28;45305;-77
2021/06/29 05:45:19;;;;;;;;;7.25;6.25;;;;;18.03;73.26;101060.28;4937451;28;45437;-77
2021/06/29 05:47:45;;;;;;;;;7.00;5.00;;;;;18.07;73.28;101060.94;4937029;28;45306;-77
2021/06/29 05:50:12;;;;;;;;;5.25;5.25;;;;;18.08;73.48;101063.47;4920877;28;46699;-78
2021/06/29 05:52:38;;;;;;;;;8.50;5.75;;;;;18.10;73.34;101066.03;4937946;28;45388;-77
2021/06/29 05:55:04;;;;;;;;;5.00;3.00;;;;;18.11;72.92;101059.75;4937066;28;45509;-77
2021/06/29 05:57:31;;;;;;;;;9.75;5.25;;;;;18.11;73.19;101059.75;4937374;28;45424;-77
2021/06/29 05:59:56;;;;;;;;;4.50;4.50;;;;;18.10;72.44;101058.88;4935862;28;45546;-77
2021/06/29 06:02:21;;;;;;;;;5.00;4.25;;;;;18.09;72.93;101061.66;4936401;28;45487;-78
2021/06/29 06:04:46;;;;;;;;;5.00;4.75;;;;;18.09;73.30;101070.50;4936983;28;45317;-77
2021/06/29 06:07:12;;;;;;;;;4.50;4.00;;;;;18.09;73.25;101064.31;4937120;28;49565;-77
2021/06/29 06:09:37;;;;;;;;;4.75;3.00;;;;;18.12;73.61;101070.28;4936961;28;46152;-78
2021/06/29 06:12:04;;;;;;;;;3.50;3.00;;;;;18.17;73.50;101076.16;4937746;28;45531;-77
2021/06/29 06:14:29;;;;;;;;;4.25;4.25;;;;;18.17;73.05;101069.97;4936143;28;45805;-77
2021/06/29 06:16:55;;;;;;;;;4.75;4.00;;;;;18.15;73.42;101072.72;4935923;28;45448;-79
2021/06/29 06:19:20;;;;;;;;;5.00;4.00;;;;;18.18;73.12;101077.84;4938076;28;46165;-78
2021/06/29 06:21:46;;;;;;;;;3.50;3.50;;;;;18.17;73.50;101080.63;4936632;28;45543;-80
2021/06/29 06:24:11;;;;;;;;;6.00;4.25;;;;;18.18;74.20;101083.16;4936809;28;45451;-77
2021/06/29 06:26:36;;;;;;;;;7.75;5.00;;;;;18.22;74.00;101081.16;4937012;28;45418;-75
2021/06/29 06:29:02;;;;;;;;;7.50;5.00;;;;;18.25;73.74;101079.09;4936002;28;46846;-77
2021/06/29 06:31:27;;;;;;;;;5.00;4.00;;;;;18.31;74.23;101074.31;4938045;28;45429;-76
2021/06/29 06:33:53;;;;;;;;;5.50;4.75;;;;;18.37;74.03;101069.41;4937812;28;45510;-77
2021/06/29 06:36:18;;;;;;;;;4.25;4.00;;;;;18.44;73.98;101064.53;4934270;28;50713;-77
2021/06/29 06:38:43;;;;;;;;;4.00;4.00;;;;;18.48;73.95;101068.69;4936514;28;46112;-77
2021/06/29 06:41:13;;;;;;;;;7.25;4.75;;;;;18.51;73.38;101063.97;4936604;28;45396;-77
2021/06/29 06:43:41;;;;;;;;;7.00;4.00;;;;;18.58;73.20;101071.50;4938491;28;45414;-77
2021/06/29 06:46:08;;;;;;;;;4.00;4.00;;;;;18.63;73.37;101070.22;4934264;28;45551;-77
2021/06/29 06:48:33;;;;;;;;;7.00;5.00;;;;;18.68;73.59;101070.78;4936142;28;45472;-77
2021/06/29 06:50:59;;;;;;;;;6.50;5.00;;;;;18.71;73.37;101072.38;4935631;28;45959;-77
2021/06/29 06:53:24;;;;;;;;;5.00;5.00;;;;;18.69;73.23;101080.50;4936250;28;45738;-78
2021/06/29 06:55:49;;;;;;;;;6.00;5.75;;;;;18.66;73.39;101078.00;4937595;28;45406;-77
2021/06/29 06:58:15;;;;;;;;;6.75;6.00;;;;;18.61;73.08;101084.63;4935993;28;45575;-77
2021/06/29 07:00:40;;;;;;;;;8.75;6.50;;;;;18.55;73.24;101080.59;4934884;28;45360;-76
2021/06/29 07:03:05;;;;;;;;;6.00;5.00;;;;;18.48;74.10;101082.84;4936605;28;45559;-76
2021/06/29 07:05:31;;;;;;;;;5.50;5.50;;;;;18.43;74.11;101078.81;4936199;28;45456;-76
2021/06/29 07:07:56;;;;;;;;;8.00;5.50;;;;;18.44;74.56;101086.66;4936145;28;45710;-77
2021/06/29 07:10:22;;;;;;;;;4.75;4.50;;;;;18.43;74.44;101090.28;4935096;28;45300;-76
2021/06/29 07:12:47;;;;;;;;;7.25;7.25;;;;;18.42;74.60;101082.41;4935532;28;45321;-76
2021/06/29 07:15:13;;;;;;;;;7.50;6.75;;;;;18.42;75.37;101093.88;4950048;28;45762;-76
2021/06/29 07:17:38;;;;;;;;;8.25;7.00;;;;;18.46;75.42;101091.88;4934444;28;47323;-77
2021/06/29 07:20:08;;;;;;;;;9.50;7.00;;;;;18.49;75.26;101087.19;4934823;28;45623;-77
2021/06/29 07:22:35;;;;;;;;;8.00;7.00;;;;;18.53;75.45;101082.47;4937343;28;45971;-78
2021/06/29 07:25:00;;;;;;;;;9.50;7.75;;;;;18.58;75.61;101091.00;4934499;28;45661;-76
2021/06/29 07:27:26;;;;;;;;;7.75;7.75;;;;;18.60;75.14;101097.09;4935339;28;45348;-79
2021/06/29 07:29:51;;;;;;;;;9.50;8.00;;;;;18.53;100.00;101093.13;4933906;28;45445;-77
2021/06/29 07:32:16;;;;;;;;;10.00;9.00;;;;;18.60;100.00;101096.22;4934145;28;45515;-78
2021/06/29 07:34:42;;;;;;;;;10.00;9.25;;;;;18.68;100.00;101092.06;4935096;28;45496;-78
2021/06/29 07:37:07;;;;;;;;;11.50;8.75;;;;;18.88;100.00;101085.34;4932038;28;48971;-78
2021/06/29 07:39:32;;;;;;;;;11.50;8.75;;;;;19.09;83.47;101090.91;4934340;28;45294;-77
2021/06/29 07:41:58;;;;;;;;;9.75;9.50;;;;;19.22;77.03;101089.06;4935360;28;45627;-77
2021/06/29 07:44:23;;;;;;;;;11.00;10.50;;;;;19.37;76.63;101091.53;4935009;28;45619;-77
2021/06/29 07:46:49;;;;;;;;;13.25;11.25;;;;;19.60;76.42;101097.88;4935828;28;45771;-78
2021/06/29 07:49:14;;;;;;;;;9.00;7.75;;;;;19.78;74.89;101097.34;4934448;28;45487;-78
2021/06/29 07:51:40;;;;;;;;;203.00;173.25;;;;;20.01;74.34;101097.41;4933752;28;45524;-80
2021/06/29 07:54:05;;;;;;;;;8.25;8.25;;;;;20.25;73.81;101091.97;4935362;28;45553;-79
2021/06/29 07:56:30;;;;;;;;;8.25;7.00;;;;;20.50;73.32;101099.78;4943555;28;46035;-79
2021/06/29 07:58:56;;;;;;;;;6.50;6.50;;;;;20.74;73.89;101097.00;4932860;28;49433;-79
2021/06/29 08:01:21;;;;;;;;;6.00;6.00;;;;;20.93;72.58;101098.19;4936476;28;45566;-79
2021/06/29 08:03:47;;;;;;;;;9.50;9.00;;;;;21.05;71.39;101092.72;4934768;28;45477;-80
2021/06/29 08:06:13;;;;;;;;;4.75;4.75;;;;;21.23;69.66;101094.84;4935276;28;45607;-79
2021/06/29 08:08:39;;;;;;;;;5.25;5.25;;;;;21.31;70.14;101095.94;4935160;28;45439;-79
2021/06/29 08:11:07;;;;;;;;;6.00;6.00;;;;;21.43;70.26;101102.09;4935315;28;45649;-79
2021/06/29 08:13:32;;;;;;;;;6.00;5.25;;;;;21.49;70.49;101098.91;4936098;28;46341;-79
2021/06/29 08:15:58;;;;;;;;;4.50;4.50;;;;;21.57;68.57;101099.13;4934734;28;46270;-78
2021/06/29 08:18:24;;;;;;;;;5.00;5.00;;;;;21.62;68.30;101094.25;4934900;28;45429;-80
2021/06/29 08:20:51;;;;;;;;;7.75;6.25;;;;;21.66;68.61;101094.81;4932556;28;47729;-79
2021/06/29 08:23:16;;;;;;;;;8.00;6.50;;;;;21.62;69.41;101101.44;4935125;28;45397;-80
2021/06/29 08:25:43;;;;;;;;;6.75;6.75;;;;;21.61;69.10;101103.25;4934182;28;46053;-79
2021/06/29 08:28:10;;;;;;;;;10.50;7.25;;;;;21.58;68.55;101102.66;4948660;28;45764;-80
2021/06/29 08:30:35;;;;;;;;;6.25;5.00;;;;;21.52;67.74;101104.03;4933425;28;45660;-80
2021/06/29 08:33:01;;;;;;;;;6.50;4.75;;;;;21.42;68.80;101111.09;4935138;28;45574;-80
2021/06/29 08:35:26;;;;;;;;;8.00;4.00;;;;;21.32;67.90;101108.34;4935440;28;46857;-80
2021/06/29 08:37:51;;;;;;;;;4.50;4.00;;;;;21.28;68.08;101106.00;4935457;28;45537;-79
2021/06/29 08:40:17;;;;;;;;;4.50;4.50;;;;;21.26;68.76;101107.97;4934989;28;45515;-80
2021/06/29 08:42:43;;;;;;;;;5.75;5.00;;;;;21.29;68.35;101097.00;4934774;28;45567;-79
2021/06/29 08:45:13;;;;;;;;;3.75;3.00;;;;;21.23;65.94;101098.38;4934210;28;45312;-79
2021/06/29 08:47:40;;;;;;;;;1.50;1.50;;;;;21.10;66.53;101101.19;4934631;28;45687;-79
2021/06/29 08:50:09;;;;;;;;;3.00;2.25;;;;;21.05;66.90;101106.06;4935092;28;45519;-79
2021/06/29 08:52:35;;;;;;;;;4.75;3.00;;;;;21.05;68.11;101108.75;4936046;28;45353;-78
2021/06/29 08:55:01;;;;;;;;;3.75;3.00;;;;;21.01;66.71;101099.28;4933735;28;45575;-78
2021/06/29 08:57:27;;;;;;;;;3.00;3.00;;;;;20.98;66.83;101102.19;4930110;28;46230;-78
2021/06/29 08:59:52;;;;;;;;;3.00;3.00;;;;;20.93;66.19;101101.69;4935127;28;45507;-78
2021/06/29 09:02:18;;;;;;;;;3.50;3.50;;;;;20.89;66.98;101104.78;4932958;28;45601;-79
2021/06/29 09:04:50;;;;;;;;;2.50;2.50;;;;;20.92;67.12;101100.00;4935185;28;47093;-79
2021/06/29 09:07:20;;;;;;;;;2.75;0.75;;;;;20.99;66.62;101103.91;4937362;28;45814;-78
2021/06/29 09:09:57;;;;;;;;;2.50;2.50;;;;;21.14;67.34;101106.28;4937871;28;45467;-78
2021/06/29 09:12:41;;;;;;;;;3.50;2.50;;;;;21.25;66.56;101108.94;4937681;28;45457;-78
2021/06/29 09:15:30;;;;;;;;;2.50;2.50;;;;;21.32;66.93;101102.16;4936295;28;45428;-79
2021/06/29 09:17:58;;;;;;;;;5.75;2.00;;;;;21.35;66.46;101102.75;4935687;28;45390;-77
2021/06/29 09:20:26;;;;;;;;;2.75;2.75;;;;;21.33;67.24;101099.34;4937804;28;45826;-77
2021/06/29 09:22:53;;;;;;;;;3.25;3.00;;;;;21.37;65.67;101097.28;4939918;28;45365;-77
2021/06/29 09:25:29;;;;;;;;;4.00;4.00;;;;;21.43;67.07;101099.44;4937649;28;46388;-77
2021/06/29 09:27:57;;;;;;;;;5.75;3.25;;;;;21.51;66.60;101096.97;4936439;28;45897;-77
2021/06/29 09:30:30;;;;;;;;;2.25;1.75;;;;;21.67;66.63;101095.69;4936909;28;45350;-77
2021/06/29 09:33:11;;;;;;;;;2.00;2.00;;;;;21.80;66.33;101099.88;4935489;28;45322;-77
2021/06/29 09:35:39;;;;;;;;;3.00;3.00;;;;;21.97;66.32;101097.59;4936979;28;46502;-77
2021/06/29 09:38:07;;;;;;;;;3.00;2.00;;;;;22.26;66.61;101089.78;4936727;28;45651;-77
2021/06/29 09:40:34;;;;;;;;;2.75;2.25;;;;;22.79;66.03;101093.09;4937679;28;45506;-77
2021/06/29 09:43:07;;;;;;;;;3.25;2.25;;;;;23.48;64.03;101086.91;4936906;28;45424;-77
2021/06/29 09:45:37;;;;;;;;;2.25;1.75;;;;;24.11;62.55;101089.13;4934482;28;45611;-77
2021/06/29 09:48:08;;;;;;;;;2.50;2.50;;;;;24.70;61.57;101086.13;4931641;28;45710;-77
2021/06/29 09:50:43;;;;;;;;;2.00;2.00;;;;;25.36;60.63;101092.25;4936927;28;45698;-77
2021/06/29 09:53:18;;;;;;;;;1.50;1.50;;;;;26.06;59.61;101079.75;4937158;28;45379;-77
2021/06/29 09:55:46;;;;;;;;;2.00;2.00;;;;;26.73;57.79;101080.81;4934281;28;47036;-77
2021/06/29 09:58:13;;;;;;;;;2.50;2.00;;;;;27.33;55.23;101079.81;4936548;28;45279;-77
2021/06/29 10:00:47;;;;;;;;;2.00;1.00;;;;;27.99;54.86;101086.09;4937137;28;45849;-78
2021/06/29 10:03:20;;;;;;;;;9.75;8.75;;;;;28.40;53.49;101086.03;4936412;28;45438;-78
2021/06/29 10:05:46;;;;;;;;;4.00;4.00;;;;;28.48;52.40;101084.16;4940911;28;46209;-78
2021/06/29 10:08:22;;;;;;;;;2.00;2.00;;;;;28.38;51.85;101086.22;4939949;28;45913;-78
2021/06/29 10:10:47;;;;;;;;;2.50;2.50;;;;;28.30;52.95;101083.50;4942613;28;46625;-78
2021/06/29 10:13:17;;;;;;;;;2.25;2.25;;;;;28.15;52.36;101085.25;4940821;28;45615;-79
2021/06/29 10:15:43;;;;;;;;;3.00;0.75;;;;;27.88;50.31;101086.44;4938516;28;45552;-78
2021/06/29 10:18:09;;;;;;;;;2.00;1.50;;;;;27.68;50.93;101081.38;4939318;28;45393;-78
2021/06/29 10:20:56;;;;;;;;;3.00;3.00;;;;;27.60;51.58;101086.75;4938757;28;45739;-78
2021/06/29 10:23:23;;;;;;;;;3.25;3.00;;;;;27.52;52.08;101081.38;4931354;28;45651;-77
2021/06/29 10:25:49;;;;;;;;;4.25;3.00;;;;;27.44;51.43;101082.19;4940218;28;45830;-77
2021/06/29 10:28:15;;;;;;;;;3.25;3.00;;;;;27.35;51.56;101080.47;4940788;28;45382;-78
2021/06/29 10:30:41;;;;;;;;;3.00;3.00;;;;;27.30;51.61;101080.13;4938484;28;45552;-78
2021/06/29 10:33:08;;;;;;;;;4.00;4.00;;;;;27.32;51.03;101075.44;4940047;28;47118;-78
2021/06/29 10:35:35;;;;;;;;;2.50;1.75;;;;;27.37;51.62;101069.53;4941140;28;45414;-78
2021/06/29 10:38:01;;;;;;;;;2.00;2.00;;;;;27.37;50.89;101072.25;4940173;28;45649;-78
2021/06/29 10:40:27;;;;;;;;;2.00;2.00;;;;;27.34;50.07;101065.31;4941073;28;45285;-78
2021/06/29 10:43:00;;;;;;;;;1.25;1.25;;;;;27.24;49.29;101060.06;4938612;28;45405;-77
2021/06/29 10:45:37;;;;;;;;;1.50;1.50;;;;;27.17;48.86;101063.59;4931639;28;46443;-76
2021/06/29 10:48:16;;;;;;;;;2.00;1.25;;;;;27.13;49.32;101060.38;4937123;28;45365;-76
2021/06/29 10:50:41;;;;;;;;;1.00;1.00;;;;;27.09;49.20;101067.13;4938002;28;45313;-76
2021/06/29 10:53:40;;;;;;;;;0.75;0.75;;;;;27.06;49.29;101062.03;4936245;28;45591;-76
2021/06/29 10:56:16;;;;;;;;;1.00;1.00;;;;;27.08;48.79;101062.72;4936458;28;46459;-76
2021/06/29 10:58:46;;;;;;;;;1.75;1.75;;;;;26.90;47.22;101057.44;4933972;28;45382;-76
2021/06/29 11:01:26;;;;;;;;;2.75;1.00;;;;;26.84;48.80;101070.75;4934994;28;45445;-76
2021/06/29 11:03:53;;;;;;;;;1.50;1.50;;;;;26.91;47.83;101069.06;4936814;28;45440;-76
2021/06/29 11:06:42;;;;;;;;;1.00;1.00;;;;;26.90;48.15;101068.22;4936669;28;45492;-75
2021/06/29 11:09:10;;;;;;;;;1.00;1.00;;;;;26.85;47.79;101067.88;4936982;28;45689;-78
2021/06/29 11:11:35;;;;;;;;;1.00;1.00;;;;;26.77;48.76;101068.69;4931929;28;45472;-78
2021/06/29 11:14:00;;;;;;;;;1.50;1.00;;;;;26.68;48.82;101063.44;4936770;28;45503;-79
2021/06/29 11:16:51;;;;;;;;;2.75;1.00;;;;;26.54;48.13;101062.19;4934797;28;45887;-78
2021/06/29 11:19:16;;;;;;;;;2.25;2.25;;;;;26.43;48.19;101063.31;4945356;28;45688;-78
2021/06/29 11:21:42;;;;;;;;;1.50;1.50;;;;;26.23;49.26;101064.53;4940799;28;45504;-78
2021/06/29 11:24:43;;;;;;;;;0.75;0.75;;;;;25.90;48.84;101068.88;4952434;28;45181;-76
2021/06/29 11:27:08;;;;;;;;;2.25;1.25;;;;;25.59;49.39;101076.50;4933377;28;47462;-77